Time,TemperatureF,DewpointF,PressureIn,WindDirection,WindDirectionDegrees,WindSpeedMPH,WindSpeedGustMPH,Humidity,HourlyPrecipIn,Conditions,Clouds,dailyrainin,SolarRadiationWatts/m^2,SoftwareType,DateUTC
2013-05-20 00:04:00,60.3,56.1,29.36,SW,223,0.0,5.0,86,0.00,,,0.00,0,Wunderground v.1.15,2013-05-20 05:04:00,
2013-05-20 00:10:00,60.0,55.8,29.36,SW,223,0.0,5.0,86,0.00,,,0.00,0,Wunderground v.1.15,2013-05-20 05:10:00,
2013-05-20 00:19:00,59.7,55.8,29.38,SW,223,0.0,5.0,87,0.00,,,0.00,0,Wunderground v.1.15,2013-05-20 05:19:00,
2013-05-20 00:29:00,59.5,55.6,29.38,SW,223,0.0,5.0,87,0.00,,,0.00,0,Wunderground v.1.15,2013-05-20 05:29:00,
2013-05-20 00:39:00,59.5,55.9,29.38,SW,236,0.0,5.0,88,0.00,,,0.00,0,Wunderground v.1.15,2013-05-20 05:39:00,
2013-05-20 00:45:00,59.5,55.9,29.41,WSW,250,0.0,5.0,88,0.00,,,0.00,0,Wunderground v.1.15,2013-05-20 05:45:00,
2013-05-20 00:54:00,59.6,56.0,29.41,WSW,250,0.0,5.0,88,0.00,,,0.00,0,Wunderground v.1.15,2013-05-20 05:54:00,
2013-05-20 01:04:00,59.6,56.0,29.42,WSW,251,0.0,5.0,88,0.00,,,0.00,0,Wunderground v.1.15,2013-05-20 06:04:00,
2013-05-20 01:14:00,59.6,56.4,29.43,WSW,251,0.0,5.0,89,0.00,,,0.00,0,Wunderground v.1.15,2013-05-20 06:14:00,
2013-05-20 01:20:00,59.6,56.4,29.43,WSW,251,0.0,5.0,89,0.00,,,0.00,0,Wunderground v.1.15,2013-05-20 06:20:00,
2013-05-20 01:29:00,59.5,56.3,29.43,SW,236,0.0,5.0,89,0.00,,,0.00,0,Wunderground v.1.15,2013-05-20 06:29:00,
2013-05-20 01:39:00,59.4,56.2,29.43,SSW,207,0.0,5.0,89,0.00,,,0.00,0,Wunderground v.1.15,2013-05-20 06:39:00,
2013-05-20 01:50:00,59.3,56.4,29.42,SSW,207,0.0,5.0,90,0.00,,,0.00,0,Wunderground v.1.15,2013-05-20 06:50:00,
2013-05-20 02:00:00,59.1,56.2,29.41,SSW,207,0.0,5.0,90,0.00,,,0.00,0,Wunderground v.1.15,2013-05-20 07:00:00,
2013-05-20 02:09:00,58.8,55.9,29.41,SSW,207,0.0,5.0,90,0.00,,,0.00,0,Wunderground v.1.15,2013-05-20 07:09:00,
2013-05-20 02:19:00,58.6,56.0,29.41,SSW,207,0.0,5.0,91,0.00,,,0.00,0,Wunderground v.1.15,2013-05-20 07:19:00,
2013-05-20 02:30:00,58.6,56.0,29.41,SSW,207,0.0,5.0,91,0.00,,,0.00,0,Wunderground v.1.15,2013-05-20 07:30:00,
2013-05-20 02:40:00,58.5,55.9,29.41,SSW,207,0.0,5.0,91,0.00,,,0.00,0,Wunderground v.1.15,2013-05-20 07:40:00,
2013-05-20 02:49:00,58.4,56.1,29.40,SSW,207,0.0,5.0,92,0.00,,,0.00,0,Wunderground v.1.15,2013-05-20 07:49:00,
2013-05-20 02:59:00,58.2,55.9,29.40,SSE,159,0.0,5.0,92,0.00,,,0.00,0,Wunderground v.1.15,2013-05-20 07:59:00,
2013-05-20 03:05:00,58.2,55.9,29.40,SSE,153,0.0,5.0,92,0.00,,,0.00,0,Wunderground v.1.15,2013-05-20 08:05:00,
2013-05-20 03:15:00,58.2,55.9,29.41,South,175,0.0,5.0,92,0.00,,,0.00,0,Wunderground v.1.15,2013-05-20 08:15:00,
2013-05-20 03:24:00,58.2,56.2,29.41,South,175,0.0,5.0,93,0.00,,,0.00,0,Wunderground v.1.15,2013-05-20 08:24:00,
2013-05-20 03:35:00,58.1,56.1,29.40,South,175,0.0,5.0,93,0.00,,,0.00,0,Wunderground v.1.15,2013-05-20 08:35:00,
2013-05-20 03:45:00,58.0,56.0,29.40,South,175,0.0,5.0,93,0.00,,,0.00,0,Wunderground v.1.15,2013-05-20 08:45:00,
2013-05-20 03:54:00,57.9,55.9,29.40,South,175,0.0,5.0,93,0.00,,,0.00,0,Wunderground v.1.15,2013-05-20 08:54:00,
2013-05-20 03:59:00,57.9,55.9,29.41,South,175,0.0,5.0,93,0.00,,,0.00,0,Wunderground v.1.15,2013-05-20 08:59:00,
2013-05-20 04:10:00,57.8,55.8,29.41,South,175,0.0,5.0,93,0.00,,,0.00,0,Wunderground v.1.15,2013-05-20 09:10:00,
2013-05-20 04:19:00,57.7,55.7,29.40,South,173,0.0,5.0,93,0.00,,,0.00,0,Wunderground v.1.15,2013-05-20 09:19:00,
2013-05-20 04:29:00,57.6,55.6,29.40,SSE,155,0.0,5.0,93,0.00,,,0.00,0,Wunderground v.1.15,2013-05-20 09:29:00,
2013-05-20 04:34:00,57.5,55.5,29.40,SSE,159,0.0,5.0,93,0.00,,,0.00,0,Wunderground v.1.15,2013-05-20 09:34:00,
2013-05-20 04:45:00,57.3,55.3,29.40,SSE,153,0.0,5.0,93,0.00,,,0.00,0,Wunderground v.1.15,2013-05-20 09:45:00,
2013-05-20 04:55:00,57.1,55.1,29.40,SSE,155,0.0,0.0,93,0.00,,,0.00,0,Wunderground v.1.15,2013-05-20 09:55:00,
2013-05-20 05:04:00,56.9,54.9,29.40,SSE,162,0.0,0.0,93,0.00,,,0.00,0,Wunderground v.1.15,2013-05-20 10:04:00,
2013-05-20 05:14:00,56.8,54.8,29.41,SSE,161,0.0,0.0,93,0.00,,,0.00,0,Wunderground v.1.15,2013-05-20 10:14:00,
2013-05-20 05:19:00,56.8,54.8,29.41,SSE,147,0.0,0.0,93,0.00,,,0.00,0,Wunderground v.1.15,2013-05-20 10:19:00,
2013-05-20 05:25:00,56.7,54.7,29.41,South,175,0.0,0.0,93,0.00,,,0.00,0,Wunderground v.1.15,2013-05-20 10:25:00,
2013-05-20 05:35:00,56.6,54.3,29.42,SSW,198,0.0,0.0,92,0.00,,,0.00,0,Wunderground v.1.15,2013-05-20 10:35:00,
2013-05-20 05:44:00,56.7,54.4,29.43,SSW,192,1.0,1.0,92,0.00,,,0.00,0,Wunderground v.1.15,2013-05-20 10:44:00,
2013-05-20 05:55:00,57.0,54.7,29.43,SSE,168,2.0,4.0,92,0.00,,,0.00,0,Wunderground v.1.15,2013-05-20 10:55:00,
2013-05-20 06:05:00,57.2,54.6,29.43,SW,216,0.0,3.0,91,0.00,,,0.00,0,Wunderground v.1.15,2013-05-20 11:05:00,
2013-05-20 06:14:00,57.5,54.6,29.43,South,184,1.0,4.0,90,0.00,,,0.00,0,Wunderground v.1.15,2013-05-20 11:14:00,
2013-05-20 06:25:00,57.7,54.5,29.43,SSW,193,0.0,4.0,89,0.00,,,0.00,0,Wunderground v.1.15,2013-05-20 11:25:00,
2013-05-20 06:30:00,57.8,54.6,29.43,South,171,0.0,4.0,89,0.00,,,0.00,7,Wunderground v.1.15,2013-05-20 11:30:00,
2013-05-20 06:39:00,58.0,54.8,29.43,South,173,1.0,4.0,89,0.00,,,0.00,12,Wunderground v.1.15,2013-05-20 11:39:00,
2013-05-20 06:49:00,58.2,54.7,29.44,WSW,240,1.0,1.0,88,0.00,,,0.00,26,Wunderground v.1.15,2013-05-20 11:49:00,
2013-05-20 06:55:00,58.3,54.8,29.44,WSW,240,1.0,2.0,88,0.00,,,0.00,21,Wunderground v.1.15,2013-05-20 11:55:00,
2013-05-20 07:04:00,58.5,55.0,29.45,West,266,1.0,4.0,88,0.00,,,0.00,19,Wunderground v.1.15,2013-05-20 12:04:00,
2013-05-20 07:14:00,58.7,55.5,29.46,SW,232,0.0,4.0,89,0.00,,,0.00,42,Wunderground v.1.15,2013-05-20 12:14:00,
2013-05-20 07:19:00,58.9,55.4,29.46,SW,232,0.0,4.0,88,0.00,,,0.00,19,Wunderground v.1.15,2013-05-20 12:19:00,
2013-05-20 07:25:00,59.0,55.8,29.46,South,174,1.0,4.0,89,0.00,,,0.00,37,Wunderground v.1.15,2013-05-20 12:25:00,
2013-05-20 07:30:00,59.1,55.5,29.46,South,188,1.0,1.0,88,0.00,,,0.00,153,Wunderground v.1.15,2013-05-20 12:30:00,
2013-05-20 07:39:00,59.4,55.8,29.46,SW,236,1.0,1.0,88,0.00,,,0.00,32,Wunderground v.1.15,2013-05-20 12:39:00,
2013-05-20 07:44:00,59.5,56.3,29.47,SSW,192,0.0,4.0,89,0.00,,,0.00,47,Wunderground v.1.15,2013-05-20 12:44:00,
2013-05-20 07:55:00,59.8,56.6,29.47,WSW,238,1.0,4.0,89,0.00,,,0.00,39,Wunderground v.1.15,2013-05-20 12:55:00,
2013-05-20 08:04:00,60.0,56.7,29.48,West,265,1.0,4.0,89,0.00,,,0.00,91,Wunderground v.1.15,2013-05-20 13:04:00,
2013-05-20 08:14:00,60.3,57.0,29.49,WSW,240,1.0,4.0,89,0.00,,,0.00,172,Wunderground v.1.15,2013-05-20 13:14:00,
2013-05-20 08:19:00,60.6,57.0,29.49,West,261,1.0,4.0,88,0.00,,,0.00,186,Wunderground v.1.15,2013-05-20 13:19:00,
2013-05-20 08:25:00,60.9,56.7,29.49,West,281,2.0,4.0,86,0.00,,,0.00,236,Wunderground v.1.15,2013-05-20 13:25:00,
2013-05-20 08:30:00,61.5,57.3,29.49,West,272,1.0,1.0,86,0.00,,,0.00,455,Wunderground v.1.15,2013-05-20 13:30:00,
2013-05-20 08:40:00,61.8,56.6,29.49,WNW,295,1.0,1.0,83,0.00,,,0.00,526,Wunderground v.1.15,2013-05-20 13:40:00,
2013-05-20 08:45:00,62.0,56.4,29.49,WSW,245,1.0,4.0,82,0.00,,,0.00,104,Wunderground v.1.15,2013-05-20 13:45:00,
2013-05-20 08:50:00,62.1,56.2,29.49,West,277,2.0,4.0,81,0.00,,,0.00,367,Wunderground v.1.15,2013-05-20 13:50:00,
2013-05-20 08:59:00,63.0,56.7,29.49,NW,309,3.0,4.0,80,0.00,,,0.00,522,Wunderground v.1.15,2013-05-20 13:59:00,
2013-05-20 09:09:00,63.8,56.8,29.49,NW,310,2.0,2.0,78,0.00,,,0.00,589,Wunderground v.1.15,2013-05-20 14:09:00,
2013-05-20 09:19:00,63.9,56.2,29.50,West,272,3.0,3.0,76,0.00,,,0.00,591,Wunderground v.1.15,2013-05-20 14:19:00,
2013-05-20 09:24:00,64.1,55.6,29.50,WNW,296,4.0,5.0,74,0.00,,,0.00,631,Wunderground v.1.15,2013-05-20 14:24:00,
2013-05-20 09:34:00,64.0,55.2,29.51,West,269,4.0,4.0,73,0.00,,,0.00,671,Wunderground v.1.15,2013-05-20 14:34:00,
2013-05-20 09:44:00,65.4,56.9,29.51,WSW,255,2.0,4.0,74,0.00,,,0.00,712,Wunderground v.1.15,2013-05-20 14:44:00,
2013-05-20 09:49:00,65.4,56.9,29.51,West,264,0.0,4.0,74,0.00,,,0.00,139,Wunderground v.1.15,2013-05-20 14:49:00,
2013-05-20 09:54:00,65.3,55.7,29.51,West,281,1.0,4.0,71,0.00,,,0.00,717,Wunderground v.1.15,2013-05-20 14:54:00,
2013-05-20 09:59:00,65.2,55.6,29.52,WSW,250,1.0,1.0,71,0.00,,,0.00,729,Wunderground v.1.15,2013-05-20 14:59:00,
2013-05-20 10:09:00,64.9,54.9,29.52,SSW,209,2.0,2.0,70,0.00,,,0.00,204,Wunderground v.1.15,2013-05-20 15:09:00,
2013-05-20 10:19:00,64.6,55.0,29.52,WSW,239,1.0,1.0,71,0.00,,,0.00,269,Wunderground v.1.15,2013-05-20 15:19:00,
2013-05-20 10:25:00,64.6,55.0,29.52,WSW,252,1.0,4.0,71,0.00,,,0.00,381,Wunderground v.1.15,2013-05-20 15:25:00,
2013-05-20 10:34:00,65.4,55.4,29.51,SSE,165,1.0,4.0,70,0.00,,,0.00,631,Wunderground v.1.15,2013-05-20 15:34:00,
2013-05-20 10:44:00,66.9,56.4,29.51,South,178,1.0,5.0,69,0.00,,,0.00,842,Wunderground v.1.15,2013-05-20 15:44:00,
2013-05-20 10:54:00,67.2,55.5,29.51,WSW,245,1.0,4.0,66,0.00,,,0.00,851,Wunderground v.1.15,2013-05-20 15:54:00,
2013-05-20 11:00:00,67.4,55.2,29.51,West,268,2.0,2.0,65,0.00,,,0.00,842,Wunderground v.1.15,2013-05-20 16:00:00,
2013-05-20 11:10:00,68.0,55.8,29.51,South,173,2.0,2.0,65,0.00,,,0.00,898,Wunderground v.1.15,2013-05-20 16:10:00,
2013-05-20 11:19:00,69.5,57.2,29.52,WNW,292,1.0,1.0,65,0.00,,,0.00,689,Wunderground v.1.15,2013-05-20 16:19:00,
2013-05-20 11:30:00,69.8,56.6,29.51,SW,231,1.0,1.0,63,0.00,,,0.00,940,Wunderground v.1.15,2013-05-20 16:30:00,
2013-05-20 11:40:00,70.0,56.4,29.51,SW,234,1.0,1.0,62,0.00,,,0.00,884,Wunderground v.1.15,2013-05-20 16:40:00,
2013-05-20 11:49:00,70.1,55.6,29.51,SW,233,1.0,1.0,60,0.00,,,0.00,849,Wunderground v.1.15,2013-05-20 16:49:00,
2013-05-20 11:59:00,70.2,55.7,29.52,SW,234,2.0,2.0,60,0.00,,,0.00,867,Wunderground v.1.15,2013-05-20 16:59:00,
2013-05-20 12:05:00,70.3,55.8,29.52,South,191,3.0,3.0,60,0.00,,,0.00,988,Wunderground v.1.15,2013-05-20 17:05:00,
2013-05-20 12:15:00,70.6,56.0,29.52,South,187,3.0,4.0,60,0.00,,,0.00,984,Wunderground v.1.15,2013-05-20 17:15:00,
2013-05-20 12:24:00,71.8,56.7,29.52,SSW,201,3.0,6.0,59,0.00,,,0.00,1083,Wunderground v.1.15,2013-05-20 17:24:00,
2013-05-20 12:34:00,71.7,56.6,29.51,WSW,242,3.0,7.0,59,0.00,,,0.00,1106,Wunderground v.1.15,2013-05-20 17:34:00,
2013-05-20 12:45:00,72.4,56.3,29.51,SSE,157,2.0,4.0,57,0.00,,,0.00,1206,Wunderground v.1.15,2013-05-20 17:45:00,
2013-05-20 12:54:00,71.8,55.7,29.51,SSE,149,3.0,5.0,57,0.00,,,0.00,353,Wunderground v.1.15,2013-05-20 17:54:00,
2013-05-20 13:04:00,72.2,55.1,29.51,SSW,212,3.0,5.0,55,0.00,,,0.00,278,Wunderground v.1.15,2013-05-20 18:04:00,
2013-05-20 13:09:00,71.5,55.0,29.51,South,183,3.0,3.0,56,0.00,,,0.00,274,Wunderground v.1.15,2013-05-20 18:09:00,
2013-05-20 13:15:00,71.2,55.2,29.51,SSE,168,2.0,4.0,57,0.00,,,0.00,297,Wunderground v.1.15,2013-05-20 18:15:00,
2013-05-20 13:24:00,72.2,56.6,29.51,WSW,243,2.0,2.0,58,0.00,,,0.00,360,Wunderground v.1.15,2013-05-20 18:24:00,
2013-05-20 13:34:00,72.6,57.0,29.51,SSW,200,3.0,8.0,58,0.00,,,0.00,459,Wunderground v.1.15,2013-05-20 18:34:00,
2013-05-20 13:44:00,73.1,56.5,29.51,SE,145,3.0,4.0,56,0.00,,,0.00,325,Wunderground v.1.15,2013-05-20 18:44:00,
2013-05-20 13:55:00,72.3,55.7,29.51,SSW,202,3.0,12.0,56,0.00,,,0.00,276,Wunderground v.1.15,2013-05-20 18:55:00,
2013-05-20 14:04:00,72.5,56.4,29.50,South,190,3.0,4.0,57,0.00,,,0.00,272,Wunderground v.1.15,2013-05-20 19:04:00,
2013-05-20 14:14:00,72.7,56.6,29.50,South,170,1.0,4.0,57,0.00,,,0.00,287,Wunderground v.1.15,2013-05-20 19:14:00,
2013-05-20 14:24:00,73.7,57.0,29.50,SSE,157,1.0,9.0,56,0.00,,,0.00,322,Wunderground v.1.15,2013-05-20 19:24:00,
2013-05-20 14:30:00,74.0,57.3,29.49,SSW,207,2.0,4.0,56,0.00,,,0.00,1245,Wunderground v.1.15,2013-05-20 19:30:00,
2013-05-20 14:35:00,73.9,56.7,29.49,SSE,161,2.0,4.0,55,0.00,,,0.00,265,Wunderground v.1.15,2013-05-20 19:35:00,
2013-05-20 14:44:00,73.5,57.3,29.49,WSW,240,2.0,5.0,57,0.00,,,0.00,1148,Wunderground v.1.15,2013-05-20 19:44:00,
2013-05-20 14:49:00,73.6,57.4,29.49,WSW,248,2.0,10.0,57,0.00,,,0.00,534,Wunderground v.1.15,2013-05-20 19:49:00,
2013-05-20 15:00:00,74.9,57.6,29.48,SSE,167,2.0,2.0,55,0.00,,,0.00,1046,Wunderground v.1.15,2013-05-20 20:00:00,
2013-05-20 15:09:00,75.5,57.2,29.48,SW,225,2.0,2.0,53,0.00,,,0.00,362,Wunderground v.1.15,2013-05-20 20:09:00,
2013-05-20 15:14:00,75.5,57.2,29.48,SSW,200,4.0,7.0,53,0.00,,,0.00,679,Wunderground v.1.15,2013-05-20 20:14:00,
2013-05-20 15:24:00,76.2,57.8,29.48,South,171,4.0,6.0,53,0.00,,,0.00,972,Wunderground v.1.15,2013-05-20 20:24:00,
2013-05-20 15:30:00,77.1,58.1,29.48,ESE,123,3.0,10.0,52,0.00,,,0.00,865,Wunderground v.1.15,2013-05-20 20:30:00,
2013-05-20 15:40:00,77.1,57.6,29.48,South,185,3.0,3.0,51,0.00,,,0.00,831,Wunderground v.1.15,2013-05-20 20:40:00,
2013-05-20 15:49:00,76.7,57.2,29.46,SW,234,3.0,4.0,51,0.00,,,0.00,218,Wunderground v.1.15,2013-05-20 20:49:00,
2013-05-20 15:59:00,76.2,57.8,29.46,South,180,3.0,4.0,53,0.00,,,0.00,387,Wunderground v.1.15,2013-05-20 20:59:00,
2013-05-20 16:10:00,76.3,57.4,29.46,South,177,4.0,4.0,52,0.00,,,0.00,728,Wunderground v.1.15,2013-05-20 21:10:00,
2013-05-20 16:20:00,76.8,58.4,29.45,WSW,240,3.0,4.0,53,0.00,,,0.00,726,Wunderground v.1.15,2013-05-20 21:20:00,
2013-05-20 16:29:00,75.8,56.9,29.45,WSW,246,3.0,3.0,52,0.00,,,0.00,290,Wunderground v.1.15,2013-05-20 21:29:00,
2013-05-20 16:34:00,76.0,57.6,29.45,SSE,154,3.0,4.0,53,0.00,,,0.00,250,Wunderground v.1.15,2013-05-20 21:34:00,
2013-05-20 16:40:00,76.1,57.7,29.45,SSE,156,3.0,3.0,53,0.00,,,0.00,742,Wunderground v.1.15,2013-05-20 21:40:00,
2013-05-20 16:50:00,75.3,57.0,29.44,SSW,194,4.0,4.0,53,0.00,,,0.00,105,Wunderground v.1.15,2013-05-20 21:50:00,
2013-05-20 16:59:00,74.8,57.0,29.44,SE,132,1.0,1.0,54,0.00,,,0.00,65,Wunderground v.1.15,2013-05-20 21:59:00,
2013-05-20 17:09:00,74.9,57.1,29.44,SW,215,2.0,5.0,54,0.00,,,0.00,218,Wunderground v.1.15,2013-05-20 22:09:00,
2013-05-20 17:15:00,75.5,57.2,29.43,SW,234,3.0,5.0,53,0.00,,,0.00,125,Wunderground v.1.15,2013-05-20 22:15:00,
2013-05-20 17:24:00,74.9,57.1,29.43,SW,236,2.0,4.0,54,0.00,,,0.00,213,Wunderground v.1.15,2013-05-20 22:24:00,
2013-05-20 17:34:00,75.2,58.4,29.43,SW,217,2.0,4.0,56,0.00,,,0.00,174,Wunderground v.1.15,2013-05-20 22:34:00,
2013-05-20 17:40:00,76.3,58.4,29.43,WSW,252,1.0,1.0,54,0.00,,,0.00,385,Wunderground v.1.15,2013-05-20 22:40:00,
2013-05-20 17:50:00,76.9,57.9,29.42,SW,224,3.0,4.0,52,0.00,,,0.00,229,Wunderground v.1.15,2013-05-20 22:50:00,
2013-05-20 17:59:00,77.4,57.3,29.41,SSW,208,3.0,3.0,50,0.00,,,0.00,190,Wunderground v.1.15,2013-05-20 22:59:00,
2013-05-20 18:04:00,77.3,56.6,29.41,SW,226,3.0,4.0,49,0.00,,,0.00,239,Wunderground v.1.15,2013-05-20 23:04:00,
2013-05-20 18:09:00,77.4,57.3,29.41,WSW,241,3.0,7.0,50,0.00,,,0.00,149,Wunderground v.1.15,2013-05-20 23:09:00,
2013-05-20 18:19:00,76.8,56.8,29.41,SW,234,3.0,3.0,50,0.00,,,0.00,130,Wunderground v.1.15,2013-05-20 23:19:00,
2013-05-20 18:30:00,76.7,54.4,29.41,WNW,288,4.0,4.0,46,0.00,,,0.00,144,Wunderground v.1.15,2013-05-20 23:30:00,
2013-05-20 18:40:00,76.5,54.2,29.41,WSW,253,2.0,4.0,46,0.00,,,0.00,121,Wunderground v.1.15,2013-05-20 23:40:00,
2013-05-20 18:49:00,75.5,53.9,29.41,SW,229,3.0,3.0,47,0.00,,,0.00,91,Wunderground v.1.15,2013-05-20 23:49:00,
2013-05-20 18:59:00,75.3,53.7,29.41,WSW,248,1.0,1.0,47,0.00,,,0.00,95,Wunderground v.1.15,2013-05-20 23:59:00,
2013-05-20 19:09:00,75.8,54.1,29.41,WSW,239,1.0,4.0,47,0.00,,,0.00,142,Wunderground v.1.15,2013-05-21 00:09:00,
2013-05-20 19:15:00,75.8,54.1,29.41,WSW,250,1.0,4.0,47,0.00,,,0.00,114,Wunderground v.1.15,2013-05-21 00:15:00,
2013-05-20 19:25:00,75.4,53.8,29.41,SW,234,2.0,4.0,47,0.00,,,0.00,39,Wunderground v.1.15,2013-05-21 00:25:00,
2013-05-20 19:34:00,74.6,53.6,29.41,WNW,282,1.0,3.0,48,0.00,,,0.00,46,Wunderground v.1.15,2013-05-21 00:34:00,
2013-05-20 19:44:00,73.9,53.0,29.41,WSW,256,3.0,3.0,48,0.00,,,0.00,44,Wunderground v.1.15,2013-05-21 00:44:00,
2013-05-20 19:50:00,73.7,53.3,29.41,SW,231,1.0,1.0,49,0.00,,,0.00,91,Wunderground v.1.15,2013-05-21 00:50:00,
2013-05-20 19:59:00,73.8,52.9,29.42,WSW,250,2.0,2.0,48,0.00,,,0.00,37,Wunderground v.1.15,2013-05-21 00:59:00,
2013-05-20 20:09:00,73.6,52.7,29.42,West,273,1.0,1.0,48,0.00,,,0.00,32,Wunderground v.1.15,2013-05-21 01:09:00,
2013-05-20 20:19:00,73.4,52.5,29.42,WSW,252,2.0,2.0,48,0.00,,,0.00,19,Wunderground v.1.15,2013-05-21 01:19:00,
2013-05-20 20:30:00,72.5,52.2,29.42,SW,228,0.0,4.0,49,0.00,,,0.00,9,Wunderground v.1.15,2013-05-21 01:30:00,
2013-05-20 20:39:00,72.1,51.9,29.42,WSW,239,0.0,4.0,49,0.00,,,0.00,0,Wunderground v.1.15,2013-05-21 01:39:00,
2013-05-20 20:45:00,71.7,51.5,29.43,SW,236,1.0,4.0,49,0.00,,,0.00,0,Wunderground v.1.15,2013-05-21 01:45:00,
2013-05-20 20:54:00,71.2,51.6,29.43,WSW,237,0.0,4.0,50,0.00,,,0.00,0,Wunderground v.1.15,2013-05-21 01:54:00,
2013-05-20 21:05:00,70.6,51.1,29.43,SW,236,0.0,4.0,50,0.00,,,0.00,0,Wunderground v.1.15,2013-05-21 02:05:00,
2013-05-20 21:15:00,70.1,51.1,29.42,WSW,239,1.0,4.0,51,0.00,,,0.00,0,Wunderground v.1.15,2013-05-21 02:15:00,
2013-05-20 21:25:00,69.5,51.1,29.42,WSW,239,0.0,4.0,52,0.00,,,0.00,0,Wunderground v.1.15,2013-05-21 02:25:00,
2013-05-20 21:34:00,68.9,51.6,29.42,WSW,238,0.0,4.0,54,0.00,,,0.00,0,Wunderground v.1.15,2013-05-21 02:34:00,
2013-05-20 21:45:00,68.6,51.8,29.43,West,267,0.0,4.0,55,0.00,,,0.00,0,Wunderground v.1.15,2013-05-21 02:45:00,
2013-05-20 21:55:00,68.4,51.6,29.43,West,273,0.0,4.0,55,0.00,,,0.00,0,Wunderground v.1.15,2013-05-21 02:55:00,
2013-05-20 22:04:00,68.1,51.3,29.43,West,259,1.0,4.0,55,0.00,,,0.00,0,Wunderground v.1.15,2013-05-21 03:04:00,
2013-05-20 22:14:00,67.7,51.4,29.44,WNW,294,1.0,4.0,56,0.00,,,0.00,0,Wunderground v.1.15,2013-05-21 03:14:00,
2013-05-20 22:25:00,67.2,51.4,29.44,West,267,1.0,2.0,57,0.00,,,0.00,0,Wunderground v.1.15,2013-05-21 03:25:00,
2013-05-20 22:35:00,66.7,51.5,29.44,WSW,246,1.0,4.0,58,0.00,,,0.00,0,Wunderground v.1.15,2013-05-21 03:35:00,
2013-05-20 22:40:00,66.3,51.1,29.44,SW,234,1.0,1.0,58,0.00,,,0.00,0,Wunderground v.1.15,2013-05-21 03:40:00,
2013-05-20 22:45:00,66.1,50.9,29.44,WSW,239,2.0,2.0,58,0.00,,,0.00,0,Wunderground v.1.15,2013-05-21 03:45:00,
2013-05-20 22:54:00,65.5,51.2,29.44,WSW,242,1.0,2.0,60,0.00,,,0.00,0,Wunderground v.1.15,2013-05-21 03:54:00,
2013-05-20 23:04:00,64.9,51.6,29.45,WSW,244,1.0,1.0,62,0.00,,,0.00,0,Wunderground v.1.15,2013-05-21 04:04:00,
2013-05-20 23:10:00,64.6,51.7,29.45,SW,232,1.0,1.0,63,0.00,,,0.00,0,Wunderground v.1.15,2013-05-21 04:10:00,
2013-05-20 23:15:00,64.4,52.0,29.45,SW,232,1.0,1.0,64,0.00,,,0.00,0,Wunderground v.1.15,2013-05-21 04:15:00,
2013-05-20 23:20:00,64.1,52.1,29.45,West,263,1.0,1.0,65,0.00,,,0.00,0,Wunderground v.1.15,2013-05-21 04:20:00,
2013-05-20 23:25:00,63.9,52.3,29.45,West,264,0.0,1.0,66,0.00,,,0.00,0,Wunderground v.1.15,2013-05-21 04:25:00,
2013-05-20 23:34:00,63.4,52.2,29.46,West,278,0.0,8.0,67,0.00,,,0.00,0,Wunderground v.1.15,2013-05-21 04:34:00,
2013-05-20 23:44:00,63.0,52.7,29.46,WSW,247,1.0,8.0,69,0.00,,,0.00,0,Wunderground v.1.15,2013-05-21 04:44:00,
2013-05-20 23:50:00,62.7,52.8,29.46,WSW,252,0.0,8.0,70,0.00,,,0.00,0,Wunderground v.1.15,2013-05-21 04:50:00,